sensor_id;sensor_type;location;lat;lon;timestamp;temperature;humidity
40868;DHT22;26586;50.708;22.412;2023-08-06T00:00:22;24.80;66.00
40868;DHT22;26586;50.708;22.412;2023-08-06T00:03:09;24.80;65.90
40868;DHT22;26586;50.708;22.412;2023-08-06T00:05:35;24.80;65.90
40868;DHT22;26586;50.708;22.412;2023-08-06T00:08:01;24.80;65.80
40868;DHT22;26586;50.708;22.412;2023-08-06T00:10:28;24.70;65.80
40868;DHT22;26586;50.708;22.412;2023-08-06T00:12:54;24.80;65.90
40868;DHT22;26586;50.708;22.412;2023-08-06T00:15:21;24.70;65.80
40868;DHT22;26586;50.708;22.412;2023-08-06T00:17:47;24.70;65.80
40868;DHT22;26586;50.708;22.412;2023-08-06T00:20:14;24.70;65.90
40868;DHT22;26586;50.708;22.412;2023-08-06T00:22:40;24.70;65.90
40868;DHT22;26586;50.708;22.412;2023-08-06T00:25:06;24.70;65.90
40868;DHT22;26586;50.708;22.412;2023-08-06T00:27:33;24.70;65.90
40868;DHT22;26586;50.708;22.412;2023-08-06T00:29:59;24.70;65.90
40868;DHT22;26586;50.708;22.412;2023-08-06T00:32:25;24.70;65.90
40868;DHT22;26586;50.708;22.412;2023-08-06T00:34:52;24.70;65.80
40868;DHT22;26586;50.708;22.412;2023-08-06T00:37:18;24.70;65.80
40868;DHT22;26586;50.708;22.412;2023-08-06T00:39:44;24.70;65.80
40868;DHT22;26586;50.708;22.412;2023-08-06T00:42:11;24.70;65.70
40868;DHT22;26586;50.708;22.412;2023-08-06T00:44:38;24.60;65.70
40868;DHT22;26586;50.708;22.412;2023-08-06T00:47:06;24.70;65.80
40868;DHT22;26586;50.708;22.412;2023-08-06T00:49:35;24.60;65.70
40868;DHT22;26586;50.708;22.412;2023-08-06T00:52:03;24.60;65.80
40868;DHT22;26586;50.708;22.412;2023-08-06T00:54:30;24.70;65.80
40868;DHT22;26586;50.708;22.412;2023-08-06T00:56:58;24.60;65.60
40868;DHT22;26586;50.708;22.412;2023-08-06T00:59:25;24.60;65.60
40868;DHT22;26586;50.708;22.412;2023-08-06T01:01:51;24.60;65.60
40868;DHT22;26586;50.708;22.412;2023-08-06T01:04:18;24.60;65.60
40868;DHT22;26586;50.708;22.412;2023-08-06T01:06:47;24.60;65.60
40868;DHT22;26586;50.708;22.412;2023-08-06T01:09:43;24.60;65.60
40868;DHT22;26586;50.708;22.412;2023-08-06T01:15:13;24.60;65.60
40868;DHT22;26586;50.708;22.412;2023-08-06T01:17:41;24.50;65.50
40868;DHT22;26586;50.708;22.412;2023-08-06T01:20:08;24.50;65.60
40868;DHT22;26586;50.708;22.412;2023-08-06T01:22:34;24.50;65.60
40868;DHT22;26586;50.708;22.412;2023-08-06T01:25:01;24.50;65.70
40868;DHT22;26586;50.708;22.412;2023-08-06T01:27:33;24.50;65.60
40868;DHT22;26586;50.708;22.412;2023-08-06T01:30:29;24.50;65.60
40868;DHT22;26586;50.708;22.412;2023-08-06T01:33:00;24.50;65.60
40868;DHT22;26586;50.708;22.412;2023-08-06T01:35:31;24.50;65.60
40868;DHT22;26586;50.708;22.412;2023-08-06T01:38:01;24.50;65.60
40868;DHT22;26586;50.708;22.412;2023-08-06T01:40:28;24.50;65.80
40868;DHT22;26586;50.708;22.412;2023-08-06T01:42:55;24.50;65.90
40868;DHT22;26586;50.708;22.412;2023-08-06T01:45:21;24.40;65.70
40868;DHT22;26586;50.708;22.412;2023-08-06T01:47:47;24.50;65.70
40868;DHT22;26586;50.708;22.412;2023-08-06T01:50:14;24.40;65.60
40868;DHT22;26586;50.708;22.412;2023-08-06T01:52:40;24.40;65.60
40868;DHT22;26586;50.708;22.412;2023-08-06T01:55:06;24.40;65.70
40868;DHT22;26586;50.708;22.412;2023-08-06T01:57:32;24.40;65.70
40868;DHT22;26586;50.708;22.412;2023-08-06T01:59:59;24.40;65.60
40868;DHT22;26586;50.708;22.412;2023-08-06T02:02:25;24.40;65.90
40868;DHT22;26586;50.708;22.412;2023-08-06T02:04:51;24.40;66.00
40868;DHT22;26586;50.708;22.412;2023-08-06T02:07:17;24.40;65.90
40868;DHT22;26586;50.708;22.412;2023-08-06T02:09:43;24.40;66.00
40868;DHT22;26586;50.708;22.412;2023-08-06T02:12:09;24.40;66.10
40868;DHT22;26586;50.708;22.412;2023-08-06T02:14:36;24.40;66.00
40868;DHT22;26586;50.708;22.412;2023-08-06T02:17:02;24.40;66.00
40868;DHT22;26586;50.708;22.412;2023-08-06T02:19:29;24.40;66.10
40868;DHT22;26586;50.708;22.412;2023-08-06T02:21:55;24.40;66.10
40868;DHT22;26586;50.708;22.412;2023-08-06T02:24:21;24.30;66.00
40868;DHT22;26586;50.708;22.412;2023-08-06T02:26:47;24.40;66.10
40868;DHT22;26586;50.708;22.412;2023-08-06T02:29:17;24.40;66.30
40868;DHT22;26586;50.708;22.412;2023-08-06T02:31:43;24.40;66.60
40868;DHT22;26586;50.708;22.412;2023-08-06T02:34:10;24.30;66.50
40868;DHT22;26586;50.708;22.412;2023-08-06T02:36:36;24.30;66.60
40868;DHT22;26586;50.708;22.412;2023-08-06T02:39:02;24.30;66.70
40868;DHT22;26586;50.708;22.412;2023-08-06T02:41:28;24.30;66.90
40868;DHT22;26586;50.708;22.412;2023-08-06T02:43:55;24.30;67.20
40868;DHT22;26586;50.708;22.412;2023-08-06T02:46:21;24.30;67.20
40868;DHT22;26586;50.708;22.412;2023-08-06T02:48:47;24.30;67.40
40868;DHT22;26586;50.708;22.412;2023-08-06T02:51:13;24.30;67.50
40868;DHT22;26586;50.708;22.412;2023-08-06T02:53:40;24.30;67.10
40868;DHT22;26586;50.708;22.412;2023-08-06T02:56:06;24.20;67.30
40868;DHT22;26586;50.708;22.412;2023-08-06T02:58:32;24.30;67.20
40868;DHT22;26586;50.708;22.412;2023-08-06T03:01:05;24.20;67.00
40868;DHT22;26586;50.708;22.412;2023-08-06T03:03:33;24.20;66.90
40868;DHT22;26586;50.708;22.412;2023-08-06T03:06:00;24.20;66.90
40868;DHT22;26586;50.708;22.412;2023-08-06T03:08:26;24.20;66.90
40868;DHT22;26586;50.708;22.412;2023-08-06T03:10:52;24.20;67.20
40868;DHT22;26586;50.708;22.412;2023-08-06T03:13:19;24.20;67.40
40868;DHT22;26586;50.708;22.412;2023-08-06T03:15:53;24.20;67.00
40868;DHT22;26586;50.708;22.412;2023-08-06T03:18:20;24.20;67.20
40868;DHT22;26586;50.708;22.412;2023-08-06T03:20:46;24.10;67.50
40868;DHT22;26586;50.708;22.412;2023-08-06T03:23:13;24.10;67.10
40868;DHT22;26586;50.708;22.412;2023-08-06T03:25:39;24.20;67.00
40868;DHT22;26586;50.708;22.412;2023-08-06T03:28:05;24.10;67.30
40868;DHT22;26586;50.708;22.412;2023-08-06T03:30:31;24.10;67.10
40868;DHT22;26586;50.708;22.412;2023-08-06T03:32:58;24.10;67.10
40868;DHT22;26586;50.708;22.412;2023-08-06T03:35:24;24.10;67.20
40868;DHT22;26586;50.708;22.412;2023-08-06T03:37:50;24.10;67.10
40868;DHT22;26586;50.708;22.412;2023-08-06T03:40:16;24.10;67.00
40868;DHT22;26586;50.708;22.412;2023-08-06T03:42:42;24.10;67.00
40868;DHT22;26586;50.708;22.412;2023-08-06T03:45:09;24.10;67.10
40868;DHT22;26586;50.708;22.412;2023-08-06T03:47:35;24.10;67.50
40868;DHT22;26586;50.708;22.412;2023-08-06T03:50:01;24.00;67.50
40868;DHT22;26586;50.708;22.412;2023-08-06T03:52:27;24.10;67.50
40868;DHT22;26586;50.708;22.412;2023-08-06T03:54:53;24.10;67.40
40868;DHT22;26586;50.708;22.412;2023-08-06T03:57:20;24.00;67.60
40868;DHT22;26586;50.708;22.412;2023-08-06T03:59:46;24.00;67.50
40868;DHT22;26586;50.708;22.412;2023-08-06T04:02:12;24.00;67.60
40868;DHT22;26586;50.708;22.412;2023-08-06T04:04:38;24.00;67.50
40868;DHT22;26586;50.708;22.412;2023-08-06T04:07:05;24.00;67.60
40868;DHT22;26586;50.708;22.412;2023-08-06T04:09:31;24.00;67.80
40868;DHT22;26586;50.708;22.412;2023-08-06T04:11:57;24.00;67.80
40868;DHT22;26586;50.708;22.412;2023-08-06T04:14:26;24.00;67.80
40868;DHT22;26586;50.708;22.412;2023-08-06T04:16:52;24.00;67.90
40868;DHT22;26586;50.708;22.412;2023-08-06T04:19:18;24.00;68.50
40868;DHT22;26586;50.708;22.412;2023-08-06T04:21:44;24.00;68.60
40868;DHT22;26586;50.708;22.412;2023-08-06T04:24:10;24.00;68.50
40868;DHT22;26586;50.708;22.412;2023-08-06T04:26:37;24.00;68.90
40868;DHT22;26586;50.708;22.412;2023-08-06T04:29:03;24.00;68.80
40868;DHT22;26586;50.708;22.412;2023-08-06T04:31:29;24.00;68.70
40868;DHT22;26586;50.708;22.412;2023-08-06T04:33:55;24.00;68.70
40868;DHT22;26586;50.708;22.412;2023-08-06T04:36:22;24.00;69.00
40868;DHT22;26586;50.708;22.412;2023-08-06T04:38:48;24.00;69.10
40868;DHT22;26586;50.708;22.412;2023-08-06T04:41:14;24.00;69.40
40868;DHT22;26586;50.708;22.412;2023-08-06T04:43:40;24.00;69.70
40868;DHT22;26586;50.708;22.412;2023-08-06T04:46:07;24.00;69.80
40868;DHT22;26586;50.708;22.412;2023-08-06T04:48:33;24.00;70.00
40868;DHT22;26586;50.708;22.412;2023-08-06T04:50:59;24.00;70.00
40868;DHT22;26586;50.708;22.412;2023-08-06T04:53:25;24.00;70.20
40868;DHT22;26586;50.708;22.412;2023-08-06T04:55:52;24.00;70.50
40868;DHT22;26586;50.708;22.412;2023-08-06T04:58:18;24.00;70.50
40868;DHT22;26586;50.708;22.412;2023-08-06T05:00:44;24.00;70.40
40868;DHT22;26586;50.708;22.412;2023-08-06T05:03:10;24.00;70.30
40868;DHT22;26586;50.708;22.412;2023-08-06T05:05:39;24.10;70.30
40868;DHT22;26586;50.708;22.412;2023-08-06T05:08:05;24.10;69.90
40868;DHT22;26586;50.708;22.412;2023-08-06T05:10:31;24.10;69.60
40868;DHT22;26586;50.708;22.412;2023-08-06T05:12:57;24.10;69.60
40868;DHT22;26586;50.708;22.412;2023-08-06T05:15:24;24.10;69.50
40868;DHT22;26586;50.708;22.412;2023-08-06T05:17:51;24.10;69.50
40868;DHT22;26586;50.708;22.412;2023-08-06T05:20:17;24.20;69.50
40868;DHT22;26586;50.708;22.412;2023-08-06T05:22:44;24.20;69.30
40868;DHT22;26586;50.708;22.412;2023-08-06T05:25:13;24.20;69.40
40868;DHT22;26586;50.708;22.412;2023-08-06T05:27:40;24.30;69.40
40868;DHT22;26586;50.708;22.412;2023-08-06T05:30:07;24.30;69.50
40868;DHT22;26586;50.708;22.412;2023-08-06T05:32:33;24.30;69.70
40868;DHT22;26586;50.708;22.412;2023-08-06T05:35:00;24.30;69.80
40868;DHT22;26586;50.708;22.412;2023-08-06T05:37:26;24.40;69.70
40868;DHT22;26586;50.708;22.412;2023-08-06T05:39:52;24.40;69.60
40868;DHT22;26586;50.708;22.412;2023-08-06T05:42:18;24.40;69.60
40868;DHT22;26586;50.708;22.412;2023-08-06T05:44:44;24.50;69.60
40868;DHT22;26586;50.708;22.412;2023-08-06T05:47:10;24.50;69.50
40868;DHT22;26586;50.708;22.412;2023-08-06T05:49:37;24.50;69.40
40868;DHT22;26586;50.708;22.412;2023-08-06T05:52:03;24.50;69.40
40868;DHT22;26586;50.708;22.412;2023-08-06T05:54:32;24.60;69.50
40868;DHT22;26586;50.708;22.412;2023-08-06T05:56:58;24.60;69.30
40868;DHT22;26586;50.708;22.412;2023-08-06T05:59:24;24.70;69.20
40868;DHT22;26586;50.708;22.412;2023-08-06T06:01:50;24.80;69.10
40868;DHT22;26586;50.708;22.412;2023-08-06T06:04:17;24.80;69.00
40868;DHT22;26586;50.708;22.412;2023-08-06T06:06:43;24.80;68.90
40868;DHT22;26586;50.708;22.412;2023-08-06T06:09:09;24.90;68.80
40868;DHT22;26586;50.708;22.412;2023-08-06T06:11:35;25.00;68.90
40868;DHT22;26586;50.708;22.412;2023-08-06T06:14:01;25.10;68.80
40868;DHT22;26586;50.708;22.412;2023-08-06T06:16:27;25.10;68.60
40868;DHT22;26586;50.708;22.412;2023-08-06T06:18:54;25.20;68.70
40868;DHT22;26586;50.708;22.412;2023-08-06T06:21:20;25.20;68.70
40868;DHT22;26586;50.708;22.412;2023-08-06T06:23:47;25.20;68.70
40868;DHT22;26586;50.708;22.412;2023-08-06T06:26:13;25.30;68.60
40868;DHT22;26586;50.708;22.412;2023-08-06T06:28:39;25.30;68.60
40868;DHT22;26586;50.708;22.412;2023-08-06T06:31:05;25.40;68.60
40868;DHT22;26586;50.708;22.412;2023-08-06T06:33:32;25.50;68.50
40868;DHT22;26586;50.708;22.412;2023-08-06T06:35:58;25.50;68.50
40868;DHT22;26586;50.708;22.412;2023-08-06T06:38:24;25.60;68.10
40868;DHT22;26586;50.708;22.412;2023-08-06T06:40:56;25.60;68.00
40868;DHT22;26586;50.708;22.412;2023-08-06T06:43:24;25.70;68.00
40868;DHT22;26586;50.708;22.412;2023-08-06T06:45:56;25.70;68.00
40868;DHT22;26586;50.708;22.412;2023-08-06T06:48:27;25.80;68.10
40868;DHT22;26586;50.708;22.412;2023-08-06T06:50:53;25.80;68.10
40868;DHT22;26586;50.708;22.412;2023-08-06T06:53:21;25.90;67.90
40868;DHT22;26586;50.708;22.412;2023-08-06T06:56:04;25.90;68.00
40868;DHT22;26586;50.708;22.412;2023-08-06T06:58:32;26.00;67.90
40868;DHT22;26586;50.708;22.412;2023-08-06T07:01:01;26.10;67.70
40868;DHT22;26586;50.708;22.412;2023-08-06T07:03:27;26.10;67.70
40868;DHT22;26586;50.708;22.412;2023-08-06T07:05:57;26.20;67.70
40868;DHT22;26586;50.708;22.412;2023-08-06T07:08:25;26.20;67.60
40868;DHT22;26586;50.708;22.412;2023-08-06T07:11:02;26.30;67.40
40868;DHT22;26586;50.708;22.412;2023-08-06T07:13:29;26.40;67.50
40868;DHT22;26586;50.708;22.412;2023-08-06T07:15:55;26.40;67.00
40868;DHT22;26586;50.708;22.412;2023-08-06T07:18:22;26.50;67.20
40868;DHT22;26586;50.708;22.412;2023-08-06T07:20:49;26.60;66.80
40868;DHT22;26586;50.708;22.412;2023-08-06T07:23:16;26.60;66.90
40868;DHT22;26586;50.708;22.412;2023-08-06T07:25:42;26.70;66.80
40868;DHT22;26586;50.708;22.412;2023-08-06T07:28:10;26.80;66.40
40868;DHT22;26586;50.708;22.412;2023-08-06T07:30:40;26.80;66.30
40868;DHT22;26586;50.708;22.412;2023-08-06T07:33:06;26.80;65.80
40868;DHT22;26586;50.708;22.412;2023-08-06T07:35:33;26.90;65.70
40868;DHT22;26586;50.708;22.412;2023-08-06T07:38:00;26.90;65.90
40868;DHT22;26586;50.708;22.412;2023-08-06T07:40:26;27.00;65.80
40868;DHT22;26586;50.708;22.412;2023-08-06T07:42:52;27.00;65.70
40868;DHT22;26586;50.708;22.412;2023-08-06T07:45:18;27.10;65.70
40868;DHT22;26586;50.708;22.412;2023-08-06T07:47:48;27.20;65.50
40868;DHT22;26586;50.708;22.412;2023-08-06T07:50:15;27.20;65.60
40868;DHT22;26586;50.708;22.412;2023-08-06T07:52:41;27.20;65.70
40868;DHT22;26586;50.708;22.412;2023-08-06T07:55:08;27.30;65.50
40868;DHT22;26586;50.708;22.412;2023-08-06T07:57:34;27.30;65.50
40868;DHT22;26586;50.708;22.412;2023-08-06T08:00:01;27.30;64.80
40868;DHT22;26586;50.708;22.412;2023-08-06T08:02:27;27.40;65.20
40868;DHT22;26586;50.708;22.412;2023-08-06T08:04:53;27.40;64.70
40868;DHT22;26586;50.708;22.412;2023-08-06T08:07:20;27.40;64.50
40868;DHT22;26586;50.708;22.412;2023-08-06T08:09:46;27.40;64.60
40868;DHT22;26586;50.708;22.412;2023-08-06T08:12:14;27.50;64.90
40868;DHT22;26586;50.708;22.412;2023-08-06T08:14:40;27.50;65.00
40868;DHT22;26586;50.708;22.412;2023-08-06T08:17:07;27.50;64.60
40868;DHT22;26586;50.708;22.412;2023-08-06T08:19:33;27.50;64.80
40868;DHT22;26586;50.708;22.412;2023-08-06T08:22:00;27.60;65.00
40868;DHT22;26586;50.708;22.412;2023-08-06T08:24:26;27.60;65.10
40868;DHT22;26586;50.708;22.412;2023-08-06T08:26:53;27.60;65.00
40868;DHT22;26586;50.708;22.412;2023-08-06T08:29:20;27.70;64.90
40868;DHT22;26586;50.708;22.412;2023-08-06T08:31:47;27.70;64.60
40868;DHT22;26586;50.708;22.412;2023-08-06T08:34:18;27.70;65.10
40868;DHT22;26586;50.708;22.412;2023-08-06T08:36:45;27.80;63.90
40868;DHT22;26586;50.708;22.412;2023-08-06T08:39:15;27.80;63.90
40868;DHT22;26586;50.708;22.412;2023-08-06T08:41:42;27.80;63.50
40868;DHT22;26586;50.708;22.412;2023-08-06T08:44:09;27.90;62.90
40868;DHT22;26586;50.708;22.412;2023-08-06T08:46:40;27.90;63.10
40868;DHT22;26586;50.708;22.412;2023-08-06T08:49:07;28.00;61.90
40868;DHT22;26586;50.708;22.412;2023-08-06T08:51:34;28.00;62.10
40868;DHT22;26586;50.708;22.412;2023-08-06T08:54:03;28.00;63.20
40868;DHT22;26586;50.708;22.412;2023-08-06T08:56:31;28.10;63.20
40868;DHT22;26586;50.708;22.412;2023-08-06T08:58:57;28.20;63.30
40868;DHT22;26586;50.708;22.412;2023-08-06T09:01:25;28.20;63.90
40868;DHT22;26586;50.708;22.412;2023-08-06T09:03:52;28.20;61.90
40868;DHT22;26586;50.708;22.412;2023-08-06T09:06:21;28.20;61.50
40868;DHT22;26586;50.708;22.412;2023-08-06T09:09:08;28.30;63.00
40868;DHT22;26586;50.708;22.412;2023-08-06T09:11:43;28.40;63.60
40868;DHT22;26586;50.708;22.412;2023-08-06T09:14:10;28.40;62.40
40868;DHT22;26586;50.708;22.412;2023-08-06T09:16:37;28.40;61.00
40868;DHT22;26586;50.708;22.412;2023-08-06T09:19:10;28.50;61.50
40868;DHT22;26586;50.708;22.412;2023-08-06T09:21:42;28.50;62.70
40868;DHT22;26586;50.708;22.412;2023-08-06T09:24:10;28.60;63.20
40868;DHT22;26586;50.708;22.412;2023-08-06T09:26:40;28.60;63.00
40868;DHT22;26586;50.708;22.412;2023-08-06T09:29:08;28.70;61.30
40868;DHT22;26586;50.708;22.412;2023-08-06T09:31:46;28.70;60.20
40868;DHT22;26586;50.708;22.412;2023-08-06T09:36:50;28.80;60.60
40868;DHT22;26586;50.708;22.412;2023-08-06T09:39:18;28.80;61.30
40868;DHT22;26586;50.708;22.412;2023-08-06T09:41:47;28.90;60.50
40868;DHT22;26586;50.708;22.412;2023-08-06T09:44:20;28.90;60.40
40868;DHT22;26586;50.708;22.412;2023-08-06T09:46:51;29.00;59.50
40868;DHT22;26586;50.708;22.412;2023-08-06T09:49:28;29.00;60.40
40868;DHT22;26586;50.708;22.412;2023-08-06T09:51:55;29.10;59.80
40868;DHT22;26586;50.708;22.412;2023-08-06T09:54:24;29.10;60.40
40868;DHT22;26586;50.708;22.412;2023-08-06T09:56:54;29.10;60.50
40868;DHT22;26586;50.708;22.412;2023-08-06T09:59:20;29.20;60.60
40868;DHT22;26586;50.708;22.412;2023-08-06T10:01:47;29.20;60.60
40868;DHT22;26586;50.708;22.412;2023-08-06T10:04:16;29.20;61.00
40868;DHT22;26586;50.708;22.412;2023-08-06T10:06:43;29.20;61.60
40868;DHT22;26586;50.708;22.412;2023-08-06T10:09:11;29.30;60.40
40868;DHT22;26586;50.708;22.412;2023-08-06T10:11:39;29.30;61.00
40868;DHT22;26586;50.708;22.412;2023-08-06T10:14:25;29.40;60.80
40868;DHT22;26586;50.708;22.412;2023-08-06T10:16:54;29.40;60.80
40868;DHT22;26586;50.708;22.412;2023-08-06T10:19:23;29.40;59.50
40868;DHT22;26586;50.708;22.412;2023-08-06T10:22:17;29.50;60.10
40868;DHT22;26586;50.708;22.412;2023-08-06T10:24:56;29.50;59.30
40868;DHT22;26586;50.708;22.412;2023-08-06T10:27:40;29.60;59.70
40868;DHT22;26586;50.708;22.412;2023-08-06T10:32:59;29.70;59.70
40868;DHT22;26586;50.708;22.412;2023-08-06T10:35:43;29.70;60.90
40868;DHT22;26586;50.708;22.412;2023-08-06T10:38:16;29.70;59.60
40868;DHT22;26586;50.708;22.412;2023-08-06T10:43:25;29.70;58.70
40868;DHT22;26586;50.708;22.412;2023-08-06T10:45:52;29.80;57.10
40868;DHT22;26586;50.708;22.412;2023-08-06T10:51:05;29.80;57.60
40868;DHT22;26586;50.708;22.412;2023-08-06T10:53:31;29.80;57.70
40868;DHT22;26586;50.708;22.412;2023-08-06T10:55:58;29.80;57.90
40868;DHT22;26586;50.708;22.412;2023-08-06T10:58:24;29.90;57.70
40868;DHT22;26586;50.708;22.412;2023-08-06T11:00:50;29.90;57.60
40868;DHT22;26586;50.708;22.412;2023-08-06T11:03:17;30.00;57.40
40868;DHT22;26586;50.708;22.412;2023-08-06T11:05:49;29.90;56.70
40868;DHT22;26586;50.708;22.412;2023-08-06T11:08:26;30.00;55.10
40868;DHT22;26586;50.708;22.412;2023-08-06T11:10:53;30.00;55.00
40868;DHT22;26586;50.708;22.412;2023-08-06T11:13:22;30.00;55.60
40868;DHT22;26586;50.708;22.412;2023-08-06T11:15:48;30.00;55.70
40868;DHT22;26586;50.708;22.412;2023-08-06T11:18:15;30.10;56.40
40868;DHT22;26586;50.708;22.412;2023-08-06T11:20:41;30.10;56.70
40868;DHT22;26586;50.708;22.412;2023-08-06T11:23:10;30.00;56.60
40868;DHT22;26586;50.708;22.412;2023-08-06T11:25:36;30.10;55.70
40868;DHT22;26586;50.708;22.412;2023-08-06T11:28:04;30.10;55.60
40868;DHT22;26586;50.708;22.412;2023-08-06T11:30:30;30.10;56.70
40868;DHT22;26586;50.708;22.412;2023-08-06T11:32:57;30.10;57.30
40868;DHT22;26586;50.708;22.412;2023-08-06T11:35:23;30.00;57.90
40868;DHT22;26586;50.708;22.412;2023-08-06T11:37:49;30.00;58.60
40868;DHT22;26586;50.708;22.412;2023-08-06T11:40:15;30.10;59.20
40868;DHT22;26586;50.708;22.412;2023-08-06T11:42:43;30.10;59.50
40868;DHT22;26586;50.708;22.412;2023-08-06T11:45:09;30.00;59.70
40868;DHT22;26586;50.708;22.412;2023-08-06T11:47:38;30.00;60.10
40868;DHT22;26586;50.708;22.412;2023-08-06T11:50:04;30.00;60.10
40868;DHT22;26586;50.708;22.412;2023-08-06T11:52:31;29.90;60.30
40868;DHT22;26586;50.708;22.412;2023-08-06T11:55:04;29.90;60.50
40868;DHT22;26586;50.708;22.412;2023-08-06T11:57:44;29.90;60.70
40868;DHT22;26586;50.708;22.412;2023-08-06T12:00:12;29.80;60.80
40868;DHT22;26586;50.708;22.412;2023-08-06T12:02:40;29.80;61.30
40868;DHT22;26586;50.708;22.412;2023-08-06T12:05:10;29.70;61.20
40868;DHT22;26586;50.708;22.412;2023-08-06T12:07:39;29.60;61.40
40868;DHT22;26586;50.708;22.412;2023-08-06T12:10:05;29.60;61.50
40868;DHT22;26586;50.708;22.412;2023-08-06T12:12:32;29.50;61.90
40868;DHT22;26586;50.708;22.412;2023-08-06T12:14:58;29.50;62.00
40868;DHT22;26586;50.708;22.412;2023-08-06T12:17:24;29.40;62.10
40868;DHT22;26586;50.708;22.412;2023-08-06T12:19:50;29.30;62.20
40868;DHT22;26586;50.708;22.412;2023-08-06T12:22:17;29.30;62.40
40868;DHT22;26586;50.708;22.412;2023-08-06T12:24:45;29.30;62.30
40868;DHT22;26586;50.708;22.412;2023-08-06T12:27:12;29.20;62.50
40868;DHT22;26586;50.708;22.412;2023-08-06T12:29:42;29.20;62.40
40868;DHT22;26586;50.708;22.412;2023-08-06T12:32:11;29.10;62.30
40868;DHT22;26586;50.708;22.412;2023-08-06T12:34:41;29.10;62.60
40868;DHT22;26586;50.708;22.412;2023-08-06T12:37:08;29.00;62.60
40868;DHT22;26586;50.708;22.412;2023-08-06T12:39:35;29.00;62.70
40868;DHT22;26586;50.708;22.412;2023-08-06T12:42:03;28.90;62.90
40868;DHT22;26586;50.708;22.412;2023-08-06T12:44:29;28.90;62.80
40868;DHT22;26586;50.708;22.412;2023-08-06T12:46:56;28.90;62.90
40868;DHT22;26586;50.708;22.412;2023-08-06T12:49:23;28.90;63.00
40868;DHT22;26586;50.708;22.412;2023-08-06T12:51:50;28.90;63.00
40868;DHT22;26586;50.708;22.412;2023-08-06T12:54:17;28.80;63.10
40868;DHT22;26586;50.708;22.412;2023-08-06T12:56:45;28.80;63.20
40868;DHT22;26586;50.708;22.412;2023-08-06T12:59:11;28.80;63.40
40868;DHT22;26586;50.708;22.412;2023-08-06T13:01:38;28.80;63.40
40868;DHT22;26586;50.708;22.412;2023-08-06T13:04:04;28.80;63.50
40868;DHT22;26586;50.708;22.412;2023-08-06T13:06:33;28.80;63.60
40868;DHT22;26586;50.708;22.412;2023-08-06T13:09:06;28.80;63.70
40868;DHT22;26586;50.708;22.412;2023-08-06T13:11:35;28.70;63.80
40868;DHT22;26586;50.708;22.412;2023-08-06T13:14:11;28.70;64.20
40868;DHT22;26586;50.708;22.412;2023-08-06T13:16:41;28.80;64.40
40868;DHT22;26586;50.708;22.412;2023-08-06T13:19:09;28.70;64.30
40868;DHT22;26586;50.708;22.412;2023-08-06T13:24:19;28.70;64.50
40868;DHT22;26586;50.708;22.412;2023-08-06T13:26:46;28.70;64.50
40868;DHT22;26586;50.708;22.412;2023-08-06T13:29:12;28.70;64.40
40868;DHT22;26586;50.708;22.412;2023-08-06T13:31:40;28.70;64.30
40868;DHT22;26586;50.708;22.412;2023-08-06T13:34:06;28.70;64.20
40868;DHT22;26586;50.708;22.412;2023-08-06T13:36:33;28.70;64.20
40868;DHT22;26586;50.708;22.412;2023-08-06T13:39:02;28.70;63.70
40868;DHT22;26586;50.708;22.412;2023-08-06T13:41:38;28.60;63.90
40868;DHT22;26586;50.708;22.412;2023-08-06T13:44:08;28.70;62.80
40868;DHT22;26586;50.708;22.412;2023-08-06T13:46:36;28.70;62.30
40868;DHT22;26586;50.708;22.412;2023-08-06T13:49:03;28.60;62.20
40868;DHT22;26586;50.708;22.412;2023-08-06T13:51:29;28.60;61.20
40868;DHT22;26586;50.708;22.412;2023-08-06T13:53:55;28.60;60.90
40868;DHT22;26586;50.708;22.412;2023-08-06T13:56:23;28.60;61.30
40868;DHT22;26586;50.708;22.412;2023-08-06T13:58:49;28.60;61.20
40868;DHT22;26586;50.708;22.412;2023-08-06T14:01:17;28.60;61.30
40868;DHT22;26586;50.708;22.412;2023-08-06T14:03:43;28.60;61.60
40868;DHT22;26586;50.708;22.412;2023-08-06T14:06:11;28.60;61.60
40868;DHT22;26586;50.708;22.412;2023-08-06T14:08:37;28.60;61.30
40868;DHT22;26586;50.708;22.412;2023-08-06T14:11:05;28.60;61.70
40868;DHT22;26586;50.708;22.412;2023-08-06T14:13:32;28.50;61.70
40868;DHT22;26586;50.708;22.412;2023-08-06T14:15:59;28.60;61.90
40868;DHT22;26586;50.708;22.412;2023-08-06T14:18:25;28.60;61.80
40868;DHT22;26586;50.708;22.412;2023-08-06T14:20:51;28.60;61.60
40868;DHT22;26586;50.708;22.412;2023-08-06T14:23:17;28.50;61.60
40868;DHT22;26586;50.708;22.412;2023-08-06T14:25:44;28.50;61.30
40868;DHT22;26586;50.708;22.412;2023-08-06T14:28:10;28.50;61.20
40868;DHT22;26586;50.708;22.412;2023-08-06T14:30:36;28.60;61.60
40868;DHT22;26586;50.708;22.412;2023-08-06T14:33:03;28.50;61.70
40868;DHT22;26586;50.708;22.412;2023-08-06T14:35:30;28.60;61.80
40868;DHT22;26586;50.708;22.412;2023-08-06T14:37:57;28.50;61.60
40868;DHT22;26586;50.708;22.412;2023-08-06T14:40:24;28.50;61.70
40868;DHT22;26586;50.708;22.412;2023-08-06T14:42:52;28.50;61.80
40868;DHT22;26586;50.708;22.412;2023-08-06T14:45:27;28.50;61.90
40868;DHT22;26586;50.708;22.412;2023-08-06T14:47:53;28.50;61.80
40868;DHT22;26586;50.708;22.412;2023-08-06T14:50:28;28.50;61.70
40868;DHT22;26586;50.708;22.412;2023-08-06T14:52:55;28.50;61.80
40868;DHT22;26586;50.708;22.412;2023-08-06T14:55:25;28.50;62.10
40868;DHT22;26586;50.708;22.412;2023-08-06T14:57:52;28.50;62.10
40868;DHT22;26586;50.708;22.412;2023-08-06T15:00:19;28.40;62.10
40868;DHT22;26586;50.708;22.412;2023-08-06T15:02:46;28.40;62.00
40868;DHT22;26586;50.708;22.412;2023-08-06T15:05:13;28.40;62.00
40868;DHT22;26586;50.708;22.412;2023-08-06T15:07:40;28.40;62.20
40868;DHT22;26586;50.708;22.412;2023-08-06T15:10:07;28.40;62.00
40868;DHT22;26586;50.708;22.412;2023-08-06T15:12:33;28.40;62.00
40868;DHT22;26586;50.708;22.412;2023-08-06T15:15:00;28.40;62.00
40868;DHT22;26586;50.708;22.412;2023-08-06T15:17:27;28.40;61.90
40868;DHT22;26586;50.708;22.412;2023-08-06T15:19:57;28.40;62.10
40868;DHT22;26586;50.708;22.412;2023-08-06T15:22:25;28.40;62.20
40868;DHT22;26586;50.708;22.412;2023-08-06T15:24:53;28.30;62.30
40868;DHT22;26586;50.708;22.412;2023-08-06T15:27:19;28.40;62.50
40868;DHT22;26586;50.708;22.412;2023-08-06T15:29:46;28.30;62.50
40868;DHT22;26586;50.708;22.412;2023-08-06T15:32:12;28.30;62.60
40868;DHT22;26586;50.708;22.412;2023-08-06T15:34:39;28.20;62.60